Time;durP1;ratioP1;P1;durP2;ratioP2;P2;SDS_P1;SDS_P2;PMS_P1;PMS_P2;Temp;Humidity;BMP_temperature;BMP_pressure;BME280_temperature;BME280_humidity;BME280_pressure;Samples;Min_cycle;Max_cycle;Signal;HPM_P1;HPM_P2
2023/06/05 00:00:54;;;;;;;6.15;5.60;;;;;;;15.91;88.15;96549.88;5035211;28;20212;-60
2023/06/05 00:03:20;;;;;;;6.43;5.82;;;;;;;15.79;87.98;96543.31;5035617;28;20212;-61
2023/06/05 00:05:47;;;;;;;6.13;5.63;;;;;;;15.82;90.11;96547.47;5035220;28;20224;-61
2023/06/05 00:08:16;;;;;;;5.93;5.43;;;;;;;15.77;89.97;96545.31;5030193;28;20220;-61
2023/06/05 00:10:42;;;;;;;7.00;5.28;;;;;;;15.80;90.74;96544.97;5027121;28;20200;-60
2023/06/05 00:13:11;;;;;;;6.13;5.45;;;;;;;15.81;89.31;96546.63;5035459;28;20211;-60
2023/06/05 00:15:38;;;;;;;6.28;5.65;;;;;;;15.71;88.83;96546.03;5035755;28;20227;-60
2023/06/05 00:18:05;;;;;;;5.63;4.97;;;;;;;15.69;90.79;96548.06;5032306;28;20218;-61
2023/06/05 00:20:31;;;;;;;6.00;5.40;;;;;;;15.73;89.22;96549.34;5040785;28;20234;-61
2023/06/05 00:22:58;;;;;;;5.65;5.05;;;;;;;15.68;90.63;96545.56;5038587;28;20645;-61
2023/06/05 00:25:25;;;;;;;6.30;5.80;;;;;;;15.70;89.01;96552.38;5038065;28;20553;-60
2023/06/05 00:27:51;;;;;;;6.37;5.60;;;;;;;15.59;90.07;96546.63;5033344;28;20203;-60
2023/06/05 00:30:19;;;;;;;6.53;5.93;;;;;;;15.54;90.11;96538.31;5034170;28;20555;-61
2023/06/05 00:32:46;;;;;;;6.10;5.60;;;;;;;15.53;88.39;96540.16;5034669;28;20249;-61
2023/06/05 00:35:12;;;;;;;6.72;5.88;;;;;;;15.50;91.28;96543.19;5030100;28;20223;-61
2023/06/05 00:37:39;;;;;;;6.57;5.97;;;;;;;15.50;88.59;96542.34;5037969;28;20211;-61
2023/06/05 00:40:07;;;;;;;6.63;6.03;;;;;;;15.56;89.42;96537.13;5032519;28;20257;-61
2023/06/05 00:42:33;;;;;;;6.27;5.77;;;;;;;15.37;88.36;96535.69;5027522;28;20608;-60
2023/06/05 00:45:00;;;;;;;7.18;5.90;;;;;;;15.39;90.13;96546.19;5037340;28;20215;-61
2023/06/05 00:47:28;;;;;;;7.30;6.27;;;;;;;15.27;89.19;96547.59;5042291;28;20222;-61
2023/06/05 00:49:55;;;;;;;6.20;5.60;;;;;;;15.25;89.12;96542.44;5046535;28;20207;-61
2023/06/05 00:52:22;;;;;;;6.63;6.03;;;;;;;15.16;90.40;96540.00;5040957;28;20647;-61
2023/06/05 00:54:48;;;;;;;7.53;5.83;;;;;;;15.15;91.70;96539.19;5037421;28;20218;-61
2023/06/05 00:57:15;;;;;;;6.72;6.03;;;;;;;15.18;90.60;96541.47;5037521;28;20208;-61
2023/06/05 00:59:44;;;;;;;5.97;5.47;;;;;;;15.15;90.44;96539.19;5054555;28;20238;-61
2023/06/05 01:02:12;;;;;;;6.20;5.60;;;;;;;15.16;92.21;96537.34;5054547;28;20196;-61
2023/06/05 01:04:43;;;;;;;6.50;5.90;;;;;;;15.14;90.91;96540.16;5041170;28;20219;-60
2023/06/05 01:07:10;;;;;;;7.03;5.93;;;;;;;15.13;91.79;96549.16;5034547;28;20222;-60
2023/06/05 01:09:37;;;;;;;6.25;5.68;;;;;;;15.05;90.66;96548.38;5034090;28;20223;-60
2023/06/05 01:12:07;;;;;;;6.45;5.78;;;;;;;15.06;92.43;96545.53;5033878;28;20238;-61
2023/06/05 01:14:36;;;;;;;8.33;5.60;;;;;;;15.01;89.45;96545.22;5034352;28;20560;-60
2023/06/05 01:17:04;;;;;;;8.47;5.70;;;;;;;14.90;90.97;96546.44;5033777;28;20295;-60
2023/06/05 01:19:32;;;;;;;8.03;5.60;;;;;;;14.92;92.58;96543.59;5020548;28;20203;-61
2023/06/05 01:22:01;;;;;;;6.03;5.60;;;;;;;14.95;91.25;96538.75;5033495;28;20196;-60
2023/06/05 01:24:28;;;;;;;6.17;5.67;;;;;;;14.95;92.15;96543.22;5020694;28;20265;-61
2023/06/05 01:27:03;;;;;;;6.90;5.93;;;;;;;14.97;91.62;96541.25;5032908;28;20211;-60
2023/06/05 01:29:33;;;;;;;6.90;6.10;;;;;;;14.92;92.75;96544.41;5034278;28;20217;-61
2023/06/05 01:32:06;;;;;;;5.70;5.20;;;;;;;14.96;91.77;96534.25;5033993;28;20220;-60
2023/06/05 01:34:33;;;;;;;6.03;5.50;;;;;;;14.93;92.49;96546.09;5033755;28;20658;-60
2023/06/05 01:37:00;;;;;;;6.60;5.50;;;;;;;15.00;91.34;96537.41;5027890;28;20287;-60
2023/06/05 01:39:31;;;;;;;6.40;5.80;;;;;;;14.94;90.94;96537.09;5029116;28;20215;-60
2023/06/05 01:41:58;;;;;;;6.30;5.67;;;;;;;14.84;90.36;96528.47;5032739;28;20261;-60
2023/06/05 01:44:24;;;;;;;6.20;5.60;;;;;;;14.88;89.62;96532.44;5033966;28;20223;-60
2023/06/05 01:46:51;;;;;;;6.60;5.80;;;;;;;14.76;88.66;96535.66;5033446;28;20699;-60
2023/06/05 01:49:17;;;;;;;5.93;5.43;;;;;;;14.77;89.26;96540.81;5030877;28;20540;-61
2023/06/05 01:51:44;;;;;;;6.27;5.63;;;;;;;14.74;89.25;96535.00;5034037;28;20593;-61
2023/06/05 01:54:11;;;;;;;6.30;5.70;;;;;;;14.71;90.72;96538.84;5033746;28;20650;-61
2023/06/05 01:56:39;;;;;;;6.68;5.07;;;;;;;14.75;90.38;96537.50;5033301;28;20204;-61
2023/06/05 01:59:07;;;;;;;6.07;5.47;;;;;;;14.70;88.39;96539.03;5033733;28;20664;-61
2023/06/05 02:01:34;;;;;;;7.97;5.73;;;;;;;14.69;90.58;96535.53;5035771;28;20554;-62
2023/06/05 02:04:04;;;;;;;8.33;5.77;;;;;;;14.68;90.92;96533.84;5037470;28;20200;-60
2023/06/05 02:06:35;;;;;;;6.07;5.50;;;;;;;14.69;88.79;96532.03;5037484;28;20196;-61
2023/06/05 02:09:02;;;;;;;6.77;5.57;;;;;;;14.64;90.50;96535.19;5037748;28;20262;-61
2023/06/05 02:11:29;;;;;;;6.03;5.47;;;;;;;14.58;88.13;96532.38;5036650;28;20278;-61
2023/06/05 02:13:56;;;;;;;6.23;5.57;;;;;;;14.59;90.72;96540.22;5037443;28;20686;-61
2023/06/05 02:16:25;;;;;;;6.17;5.30;;;;;;;14.55;88.76;96536.22;5036899;28;20207;-60
2023/06/05 02:18:52;;;;;;;5.65;5.20;;;;;;;14.55;91.00;96538.88;5020358;28;20295;-61
2023/06/05 02:21:18;;;;;;;6.95;5.28;;;;;;;14.47;89.87;96538.91;5037280;28;20579;-60
2023/06/05 02:23:45;;;;;;;5.80;5.30;;;;;;;14.45;89.11;96538.25;5036848;28;20208;-61
2023/06/05 02:26:12;;;;;;;6.13;5.53;;;;;;;14.43;90.99;96537.56;5037035;28;20203;-60
2023/06/05 02:28:41;;;;;;;5.78;5.28;;;;;;;14.48;90.69;96534.41;5037024;28;20583;-61
2023/06/05 02:31:09;;;;;;;5.77;5.27;;;;;;;14.42;90.45;96530.59;5036447;28;20286;-60
2023/06/05 02:33:35;;;;;;;5.82;5.32;;;;;;;14.45;91.22;96538.25;5036930;28;20242;-61
2023/06/05 02:36:01;;;;;;;5.80;5.30;;;;;;;14.44;91.86;96531.25;5037057;28;20203;-62
2023/06/05 02:38:28;;;;;;;5.82;5.22;;;;;;;14.46;89.72;96531.91;5031096;28;20209;-61
2023/06/05 02:40:55;;;;;;;5.78;5.30;;;;;;;14.40;89.63;96528.09;5031468;28;20287;-61
2023/06/05 02:43:22;;;;;;;6.13;5.28;;;;;;;14.36;89.05;96532.09;5036316;28;20219;-61
2023/06/05 02:45:48;;;;;;;5.77;5.27;;;;;;;14.31;88.92;96537.06;5023282;28;20208;-61
2023/06/05 02:48:16;;;;;;;8.20;5.35;;;;;;;14.31;90.06;96529.06;5034358;28;20208;-61
2023/06/05 02:50:43;;;;;;;5.57;5.07;;;;;;;14.31;91.14;96533.59;5031884;28;20211;-61
2023/06/05 02:53:10;;;;;;;8.02;5.15;;;;;;;14.25;92.24;96529.75;5036695;28;20235;-60
2023/06/05 02:55:37;;;;;;;6.20;5.10;;;;;;;14.21;92.49;96538.22;5027428;28;20567;-60
2023/06/05 02:58:03;;;;;;;6.23;5.63;;;;;;;14.23;92.61;96530.94;5032694;28;20205;-61
2023/06/05 03:00:31;;;;;;;5.60;4.85;;;;;;;14.28;90.09;96533.91;5036211;28;20207;-61
2023/06/05 03:02:57;;;;;;;6.55;5.63;;;;;;;14.21;89.55;96538.22;5037340;28;20480;-60
2023/06/05 03:05:25;;;;;;;5.43;4.93;;;;;;;14.21;91.58;96538.22;5038135;28;20207;-60
2023/06/05 03:07:54;;;;;;;5.68;5.18;;;;;;;14.12;92.37;96545.41;5033551;28;20287;-60
2023/06/05 03:10:21;;;;;;;5.95;5.47;;;;;;;14.11;91.70;96540.25;5036273;28;20204;-60
2023/06/05 03:12:47;;;;;;;6.30;5.77;;;;;;;14.06;92.67;96538.09;5034492;28;20235;-60
2023/06/05 03:15:15;;;;;;;6.00;5.43;;;;;;;14.15;92.69;96541.56;5035863;28;20223;-60
2023/06/05 03:17:42;;;;;;;5.80;5.20;;;;;;;14.13;92.51;96546.25;5036032;28;20266;-60
2023/06/05 03:20:10;;;;;;;6.03;5.43;;;;;;;14.11;91.90;96542.91;5036095;28;20204;-60
2023/06/05 03:22:38;;;;;;;10.52;5.35;;;;;;;14.06;91.01;96539.94;5035199;28;20556;-60
2023/06/05 03:25:06;;;;;;;5.60;5.13;;;;;;;14.10;90.70;96547.38;5024197;28;20236;-60
2023/06/05 03:27:32;;;;;;;5.67;5.17;;;;;;;13.97;92.75;96547.06;5041107;28;20203;-61
2023/06/05 03:29:58;;;;;;;7.10;5.10;;;;;;;13.96;93.07;96540.06;5044662;28;20219;-62
2023/06/05 03:32:25;;;;;;;5.40;4.90;;;;;;;13.96;91.53;96535.59;5043092;28;20224;-61
2023/06/05 03:34:51;;;;;;;5.67;5.13;;;;;;;13.88;92.75;96537.44;5024766;28;20216;-61
2023/06/05 03:37:18;;;;;;;6.43;4.93;;;;;;;13.91;91.59;96540.59;5035869;28;20277;-61
2023/06/05 03:39:46;;;;;;;5.57;5.07;;;;;;;13.92;91.15;96544.88;5025354;28;20211;-61
2023/06/05 03:42:12;;;;;;;6.90;5.80;;;;;;;13.91;92.42;96545.91;5032814;28;20200;-62
2023/06/05 03:44:38;;;;;;;7.77;5.60;;;;;;;13.93;93.81;96551.88;5035760;28;20223;-61
2023/06/05 03:47:06;;;;;;;6.23;5.50;;;;;;;14.01;93.28;96547.56;5038481;28;20212;-61
2023/06/05 03:49:32;;;;;;;5.63;5.13;;;;;;;13.99;92.98;96549.56;5046138;28;20195;-61
2023/06/05 03:52:01;;;;;;;5.60;5.10;;;;;;;13.98;92.75;96550.56;5045481;28;20224;-60
2023/06/05 03:54:27;;;;;;;6.10;5.47;;;;;;;13.96;93.27;96556.03;5040277;28;20204;-60
2023/06/05 03:56:55;;;;;;;5.63;5.13;;;;;;;14.01;93.98;96558.19;5034988;28;20203;-61
2023/06/05 03:59:22;;;;;;;6.17;5.50;;;;;;;14.03;93.88;96561.53;5035102;28;20651;-61
2023/06/05 04:01:49;;;;;;;5.50;5.07;;;;;;;14.05;93.80;96556.88;5025019;28;20591;-60
2023/06/05 04:04:16;;;;;;;5.73;5.23;;;;;;;14.04;94.38;96560.50;5024822;28;20197;-60
2023/06/05 04:06:43;;;;;;;7.27;5.40;;;;;;;14.04;95.79;96566.66;5034098;28;20208;-60
2023/06/05 04:09:12;;;;;;;6.70;5.40;;;;;;;14.10;94.02;96558.03;5035095;28;20640;-60
2023/06/05 04:11:39;;;;;;;6.53;5.40;;;;;;;14.14;92.67;96569.16;5034592;28;20541;-60
2023/06/05 04:14:07;;;;;;;5.90;4.83;;;;;;;14.20;93.12;96565.84;5034655;28;20549;-60
2023/06/05 04:16:34;;;;;;;6.10;5.47;;;;;;;14.20;95.02;96565.84;5034705;28;20286;-60
2023/06/05 04:19:01;;;;;;;6.03;5.53;;;;;;;14.27;95.11;96569.50;5034932;28;20216;-62
2023/06/05 04:21:27;;;;;;;5.67;5.17;;;;;;;14.31;95.97;96571.63;5035109;28;20207;-60
2023/06/05 04:23:54;;;;;;;5.73;5.23;;;;;;;14.32;96.54;96572.47;5034795;28;20200;-60
2023/06/05 04:26:21;;;;;;;6.07;5.30;;;;;;;14.38;95.91;96566.53;5034897;28;20264;-61
2023/06/05 04:28:50;;;;;;;6.17;5.57;;;;;;;14.46;96.79;96569.16;5034869;28;20200;-60
2023/06/05 04:31:18;;;;;;;7.20;5.33;;;;;;;14.51;96.10;96564.19;5013218;28;20208;-61
2023/06/05 04:33:45;;;;;;;6.13;5.63;;;;;;;14.57;96.36;96570.63;5054932;28;20207;-61
2023/06/05 04:36:11;;;;;;;5.95;5.35;;;;;;;14.67;96.29;96568.63;5045183;28;20648;-60
2023/06/05 04:38:39;;;;;;;10.53;5.63;;;;;;;14.72;94.55;96577.78;5035003;28;20207;-60
2023/06/05 04:41:06;;;;;;;5.87;5.37;;;;;;;14.88;94.26;96580.38;5034807;28;20302;-61
2023/06/05 04:43:32;;;;;;;6.17;5.67;;;;;;;15.05;95.96;96580.34;5034505;28;20191;-60
2023/06/05 04:46:00;;;;;;;6.30;5.67;;;;;;;15.20;96.37;96575.91;5031096;28;20628;-60
2023/06/05 04:48:28;;;;;;;5.25;4.72;;;;;;;15.40;95.51;96579.84;5041148;28;20236;-62
2023/06/05 04:50:55;;;;;;;5.75;5.22;;;;;;;15.49;95.11;96578.81;5054283;28;20208;-61
2023/06/05 04:53:22;;;;;;;7.78;5.50;;;;;;;15.60;95.09;96586.44;5054049;28;20230;-62
2023/06/05 04:55:48;;;;;;;6.13;5.45;;;;;;;15.63;95.70;96586.06;5035213;28;20624;-61
2023/06/05 04:58:16;;;;;;;6.28;5.68;;;;;;;15.65;94.02;96589.41;5034212;28;20913;-62
2023/06/05 05:00:44;;;;;;;7.20;5.43;;;;;;;15.74;96.04;96588.34;5034360;28;20203;-61
2023/06/05 05:03:11;;;;;;;5.95;5.38;;;;;;;15.83;96.49;96586.47;5034409;28;20207;-61
2023/06/05 05:05:39;;;;;;;5.20;4.80;;;;;;;15.96;95.85;96586.69;5034238;28;20683;-61
2023/06/05 05:08:06;;;;;;;6.72;5.68;;;;;;;16.07;95.68;96580.94;5030939;28;20579;-61
2023/06/05 05:10:32;;;;;;;6.65;5.57;;;;;;;16.22;92.55;96586.34;5034227;28;20207;-61
2023/06/05 05:13:00;;;;;;;5.95;5.45;;;;;;;16.40;87.55;96581.53;5034082;28;20259;-62
2023/06/05 05:15:28;;;;;;;6.60;5.28;;;;;;;16.53;83.79;96580.88;5033573;28;20208;-61
2023/06/05 05:17:55;;;;;;;5.72;5.18;;;;;;;16.69;84.20;96578.91;5036348;28;20298;-62
2023/06/05 05:20:22;;;;;;;6.07;5.57;;;;;;;16.88;84.10;96575.72;5037253;28;20219;-62
2023/06/05 05:22:50;;;;;;;6.20;5.40;;;;;;;17.01;84.60;96576.91;5034645;28;20211;-62
2023/06/05 05:25:17;;;;;;;5.53;5.10;;;;;;;17.13;81.54;96570.91;5034614;28;20215;-61
2023/06/05 05:27:43;;;;;;;5.65;5.15;;;;;;;17.35;76.39;96569.16;5034222;28;20203;-61
2023/06/05 05:30:11;;;;;;;6.60;5.00;;;;;;;17.56;76.26;96571.91;5033845;28;20222;-61
2023/06/05 05:32:37;;;;;;;5.82;5.10;;;;;;;17.72;74.32;96574.34;5034076;28;20228;-61
2023/06/05 05:35:04;;;;;;;6.53;4.90;;;;;;;17.96;70.89;96583.03;5034577;28;20338;-61
2023/06/05 05:37:31;;;;;;;5.75;5.15;;;;;;;18.16;71.26;96581.38;5038277;28;20217;-60
2023/06/05 05:39:58;;;;;;;7.15;5.45;;;;;;;18.42;70.86;96586.16;5034039;28;20234;-61
2023/06/05 05:42:26;;;;;;;5.38;4.97;;;;;;;18.58;70.74;96581.38;5037823;28;20199;-61
2023/06/05 05:44:52;;;;;;;5.97;5.28;;;;;;;18.77;67.64;96582.56;5037711;28;20219;-61
2023/06/05 05:47:19;;;;;;;5.72;5.13;;;;;;;18.97;64.78;96588.03;5037748;28;20514;-60
2023/06/05 05:49:46;;;;;;;5.88;5.25;;;;;;;19.16;65.44;96585.47;5035701;28;20543;-62
2023/06/05 05:52:12;;;;;;;5.55;5.05;;;;;;;19.44;65.19;96593.50;5037332;28;20536;-61
2023/06/05 05:54:41;;;;;;;6.95;5.55;;;;;;;19.61;63.12;96581.38;5032183;28;20290;-60
2023/06/05 05:57:11;;;;;;;5.32;4.82;;;;;;;19.84;62.56;96584.56;5024355;28;20258;-60
2023/06/05 05:59:41;;;;;;;5.53;5.00;;;;;;;19.98;61.09;96592.66;5037344;28;20235;-60
2023/06/05 06:02:09;;;;;;;7.75;5.85;;;;;;;20.17;58.73;96586.47;5037601;28;20211;-61
2023/06/05 06:04:35;;;;;;;6.82;5.03;;;;;;;20.37;58.75;96587.34;5034772;28;20200;-61
2023/06/05 06:07:02;;;;;;;6.43;5.22;;;;;;;20.43;59.45;96586.56;5037395;28;20214;-61
2023/06/05 06:09:29;;;;;;;5.57;5.07;;;;;;;20.22;58.33;96578.66;5037737;28;20603;-61
2023/06/05 06:11:55;;;;;;;6.00;5.40;;;;;;;19.88;64.42;96588.50;5037821;28;20243;-60
2023/06/05 06:14:23;;;;;;;6.85;4.97;;;;;;;19.91;64.60;96586.44;5038678;28;20246;-61
2023/06/05 06:16:51;;;;;;;8.45;5.00;;;;;;;20.02;62.50;96578.59;5041727;28;20200;-60
2023/06/05 06:19:22;;;;;;;5.95;5.40;;;;;;;20.27;60.32;96584.22;5039958;28;20230;-62
2023/06/05 06:21:49;;;;;;;6.15;5.55;;;;;;;20.23;58.09;96583.81;5038474;28;20239;-62
2023/06/05 06:24:17;;;;;;;7.22;5.22;;;;;;;20.49;57.51;96580.34;5038231;28;20208;-63
2023/06/05 06:26:44;;;;;;;7.97;5.05;;;;;;;20.71;57.79;96579.13;5037890;28;20208;-64
2023/06/05 06:29:10;;;;;;;7.53;5.25;;;;;;;20.61;53.60;96586.78;5036739;28;20655;-63
2023/06/05 06:31:40;;;;;;;5.03;4.63;;;;;;;21.10;54.33;96585.47;5037172;28;20317;-63
2023/06/05 06:34:08;;;;;;;5.82;5.20;;;;;;;21.33;53.86;96580.47;5038129;28;20323;-64
2023/06/05 06:36:40;;;;;;;5.78;5.15;;;;;;;21.59;53.35;96587.63;5038714;28;20208;-64
2023/06/05 06:39:07;;;;;;;6.40;5.18;;;;;;;21.90;51.81;96584.16;5034414;28;20235;-64
2023/06/05 06:41:34;;;;;;;6.47;5.03;;;;;;;22.07;52.48;96591.56;5041554;28;20203;-63
2023/06/05 06:44:01;;;;;;;10.57;5.53;;;;;;;22.36;52.68;96579.34;5045177;28;20628;-63
2023/06/05 06:46:27;;;;;;;6.65;4.95;;;;;;;22.36;50.97;96582.06;5043697;28;20203;-64
2023/06/05 06:48:55;;;;;;;8.00;5.20;;;;;;;22.41;50.99;96587.63;5044396;28;20207;-64
2023/06/05 06:51:22;;;;;;;5.47;5.03;;;;;;;22.55;47.99;96583.78;5043113;28;20203;-63
2023/06/05 06:53:49;;;;;;;5.60;5.00;;;;;;;22.64;48.84;96587.03;5029895;28;20620;-65
2023/06/05 06:56:15;;;;;;;8.18;5.00;;;;;;;22.80;48.43;96586.53;5031924;28;20204;-64
2023/06/05 06:58:42;;;;;;;9.63;5.18;;;;;;;22.97;49.58;96578.69;5034127;28;20235;-64
2023/06/05 07:01:08;;;;;;;5.35;4.78;;;;;;;23.13;48.10;96578.94;5040269;28;20540;-65
2023/06/05 07:03:35;;;;;;;4.93;4.45;;;;;;;23.07;49.41;96587.09;5042288;28;20613;-64
2023/06/05 07:06:05;;;;;;;6.60;4.88;;;;;;;23.28;47.79;96587.50;5042359;28;20200;-63
2023/06/05 07:08:32;;;;;;;6.55;4.95;;;;;;;23.44;48.29;96583.41;5037119;28;20195;-63
2023/06/05 07:11:00;;;;;;;5.72;5.20;;;;;;;23.66;47.30;96592.72;5033605;28;20235;-63
2023/06/05 07:13:26;;;;;;;5.70;5.20;;;;;;;23.91;47.07;96589.09;5034569;28;20310;-63
2023/06/05 07:15:55;;;;;;;5.40;4.90;;;;;;;23.77;47.65;96589.22;5032482;28;20203;-62
2023/06/05 07:18:21;;;;;;;5.68;5.05;;;;;;;23.92;44.58;96585.31;5033168;28;20226;-63
2023/06/05 07:20:48;;;;;;;8.55;5.63;;;;;;;23.57;46.31;96588.66;5031636;28;20212;-62
2023/06/05 07:23:17;;;;;;;5.63;4.90;;;;;;;23.78;45.21;96590.06;5031881;28;20212;-63
2023/06/05 07:25:43;;;;;;;6.38;4.88;;;;;;;24.19;45.81;96592.06;5032096;28;20651;-62
2023/06/05 07:28:11;;;;;;;6.18;4.90;;;;;;;23.87;45.47;96585.19;5032272;28;21387;-66
2023/06/05 07:30:38;;;;;;;9.18;5.75;;;;;;;24.33;42.98;96582.69;5032148;28;20246;-62
2023/06/05 07:33:05;;;;;;;6.28;5.40;;;;;;;24.03;45.80;96581.84;5036117;28;20216;-63
2023/06/05 07:35:31;;;;;;;5.35;4.78;;;;;;;24.13;44.63;96582.16;5035832;28;20275;-62
2023/06/05 07:37:58;;;;;;;5.25;4.72;;;;;;;24.21;45.43;96579.13;5034720;28;20219;-62
2023/06/05 07:40:26;;;;;;;7.43;5.40;;;;;;;24.11;44.10;96579.66;5030427;28;20287;-63
2023/06/05 07:42:52;;;;;;;5.47;4.82;;;;;;;24.43;47.33;96582.13;5031820;28;20199;-63
2023/06/05 07:45:19;;;;;;;6.50;5.82;;;;;;;24.57;45.05;96584.41;5031110;28;20208;-63
2023/06/05 07:47:46;;;;;;;6.38;5.10;;;;;;;24.64;44.43;96585.13;5031332;28;20212;-62
2023/06/05 07:50:12;;;;;;;6.47;5.45;;;;;;;24.42;44.59;96584.00;5030773;28;20216;-62
2023/06/05 07:52:39;;;;;;;5.95;5.30;;;;;;;24.52;44.93;96584.25;5029836;28;20203;-63
2023/06/05 07:55:07;;;;;;;5.68;5.18;;;;;;;24.50;45.20;96589.09;5030746;28;20238;-63
2023/06/05 07:57:39;;;;;;;9.65;5.32;;;;;;;24.38;44.02;96590.94;5031187;28;20204;-61
2023/06/05 08:00:10;;;;;;;6.15;5.55;;;;;;;24.57;43.63;96584.41;5031011;28;20932;-62
2023/06/05 08:02:37;;;;;;;5.57;5.10;;;;;;;24.33;42.14;96581.88;5030254;28;20279;-61
2023/06/05 08:05:04;;;;;;;7.43;5.57;;;;;;;24.39;43.56;96578.25;5030752;28;20282;-61
2023/06/05 08:07:30;;;;;;;6.70;5.57;;;;;;;24.88;44.71;96577.06;5030885;28;20218;-62
2023/06/05 08:09:57;;;;;;;7.53;5.30;;;;;;;25.38;43.36;96564.69;5032839;28;20204;-63
2023/06/05 08:12:23;;;;;;;6.22;5.40;;;;;;;25.33;42.56;96572.69;5037234;28;20235;-62
2023/06/05 08:14:51;;;;;;;7.85;5.63;;;;;;;24.98;41.61;96570.00;5044448;28;20319;-62
2023/06/05 08:17:17;;;;;;;5.63;5.20;;;;;;;25.50;42.72;96562.78;5041916;28;20219;-62
2023/06/05 08:19:44;;;;;;;6.00;5.38;;;;;;;25.08;41.31;96564.03;5039855;28;20207;-63
2023/06/05 08:22:12;;;;;;;7.00;5.40;;;;;;;24.95;41.93;96575.06;5035102;28;20270;-62
2023/06/05 08:24:39;;;;;;;8.40;5.03;;;;;;;25.16;43.63;96571.75;5030462;28;20199;-61
2023/06/05 08:27:07;;;;;;;5.65;5.07;;;;;;;25.65;42.55;96565.84;5030178;28;20222;-62
2023/06/05 08:29:36;;;;;;;6.57;5.20;;;;;;;25.69;40.64;96558.88;5030851;28;20640;-62
2023/06/05 08:32:04;;;;;;;7.25;5.50;;;;;;;25.54;43.31;96561.25;5036813;28;20220;-63
2023/06/05 08:34:31;;;;;;;5.85;5.35;;;;;;;25.34;42.51;96563.50;5052019;28;20254;-63
2023/06/05 08:36:58;;;;;;;5.75;5.15;;;;;;;25.11;43.96;96556.25;5053398;28;20238;-63
2023/06/05 08:39:27;;;;;;;6.18;4.93;;;;;;;24.82;44.71;96559.03;5031422;28;20307;-61
2023/06/05 08:42:00;;;;;;;6.25;5.53;;;;;;;24.89;45.23;96548.94;5030812;28;20653;-61
2023/06/05 08:44:29;;;;;;;7.00;5.25;;;;;;;25.06;42.33;96549.88;5030893;28;20295;-62
2023/06/05 08:47:00;;;;;;;5.28;4.78;;;;;;;24.91;43.59;96563.06;5029979;28;20215;-62
2023/06/05 08:49:30;;;;;;;6.65;4.65;;;;;;;24.83;43.78;96542.63;5030880;28;20602;-62
2023/06/05 08:51:58;;;;;;;6.20;5.00;;;;;;;24.97;45.16;96554.03;5030921;28;20211;-63
2023/06/05 08:54:25;;;;;;;5.57;5.07;;;;;;;25.05;44.77;96545.53;5029843;28;21378;-61
2023/06/05 08:56:52;;;;;;;6.00;5.38;;;;;;;25.07;41.52;96543.41;5029796;28;20273;-62
2023/06/05 08:59:20;;;;;;;5.38;4.85;;;;;;;25.27;44.79;96546.56;5029273;28;20204;-63
2023/06/05 09:01:47;;;;;;;5.30;4.80;;;;;;;25.48;45.97;96537.00;5029922;28;20273;-64
2023/06/05 09:04:14;;;;;;;6.65;4.97;;;;;;;25.81;43.65;96536.34;5030147;28;20204;-63
2023/06/05 09:06:46;;;;;;;6.40;4.78;;;;;;;26.04;42.92;96545.19;5029803;28;20302;-63
2023/06/05 09:09:15;;;;;;;5.85;5.03;;;;;;;25.63;41.27;96534.66;5029795;28;20208;-62
2023/06/05 09:11:41;;;;;;;5.07;4.57;;;;;;;25.84;42.56;96541.28;5034507;28;20232;-62
2023/06/05 09:14:10;;;;;;;8.20;4.93;;;;;;;25.78;43.20;96539.53;5042149;28;20222;-61
2023/06/05 09:16:38;;;;;;;5.22;4.80;;;;;;;26.01;42.11;96536.72;5042986;28;20551;-63
2023/06/05 09:19:05;;;;;;;5.03;4.50;;;;;;;26.35;41.75;96534.94;5044659;28;20409;-63
2023/06/05 09:21:32;;;;;;;5.38;4.57;;;;;;;26.48;41.91;96538.16;5042149;28;20198;-62
2023/06/05 09:24:19;;;;;;;5.88;4.95;;;;;;;26.31;40.28;96531.91;5043530;28;20265;-63
2023/06/05 09:26:51;;;;;;;5.65;5.00;;;;;;;26.34;42.71;96533.31;5041921;28;20520;-62
2023/06/05 09:29:22;;;;;;;10.00;5.07;;;;;;;26.22;41.89;96528.75;5043115;28;20344;-62
2023/06/05 09:31:48;;;;;;;5.10;4.43;;;;;;;26.37;42.67;96528.22;5041566;28;20211;-62
2023/06/05 09:34:21;;;;;;;5.00;4.60;;;;;;;26.27;41.38;96525.31;5043167;28;20900;-62
2023/06/05 09:36:48;;;;;;;7.95;5.28;;;;;;;25.93;42.25;96529.00;5041922;28;20574;-62
2023/06/05 09:39:15;;;;;;;7.72;5.15;;;;;;;26.10;43.62;96525.28;5042282;28;20640;-62
2023/06/05 09:41:44;;;;;;;7.13;5.00;;;;;;;26.35;43.40;96522.22;5041519;28;20267;-61
2023/06/05 09:44:11;;;;;;;4.97;4.53;;;;;;;26.34;43.80;96526.00;5040898;28;20559;-63
2023/06/05 09:46:51;;;;;;;4.70;4.30;;;;;;;26.61;43.03;96520.72;5041888;28;20203;-62
2023/06/05 09:49:18;;;;;;;6.10;4.40;;;;;;;26.55;43.71;96505.44;5041389;28;20709;-62
2023/06/05 09:51:46;;;;;;;19.17;6.18;;;;;;;26.27;42.02;96519.91;5046976;28;20214;-63
2023/06/05 09:54:14;;;;;;;6.05;4.85;;;;;;;26.13;41.29;96515.81;5043794;28;20219;-62
2023/06/05 09:56:41;;;;;;;5.82;4.45;;;;;;;26.38;42.26;96515.47;5041633;28;20211;-61
2023/06/05 09:59:13;;;;;;;5.00;4.57;;;;;;;26.32;43.15;96508.34;5044457;28;20262;-63
2023/06/05 10:01:41;;;;;;;7.15;4.57;;;;;;;26.40;43.82;96506.03;5043906;28;20196;-62
2023/06/05 10:04:11;;;;;;;5.63;4.40;;;;;;;26.17;42.83;96512.44;5043769;28;20548;-62
2023/06/05 10:06:38;;;;;;;4.80;4.28;;;;;;;26.22;41.54;96506.25;5047996;28;20199;-63
2023/06/05 10:09:05;;;;;;;4.57;4.10;;;;;;;25.56;42.53;96502.28;5052129;28;20211;-62
2023/06/05 10:11:31;;;;;;;4.75;4.30;;;;;;;25.82;42.19;96509.03;5047860;28;21125;-64
2023/06/05 10:13:59;;;;;;;4.90;4.50;;;;;;;25.55;41.77;96500.63;5035430;28;20215;-63
2023/06/05 10:16:28;;;;;;;6.60;4.50;;;;;;;25.28;42.10;96499.50;5033859;28;20286;-63
2023/06/05 10:18:56;;;;;;;5.25;4.50;;;;;;;25.20;41.46;96511.53;5034537;28;20841;-61
2023/06/05 10:21:24;;;;;;;5.25;4.40;;;;;;;25.13;41.04;96501.88;5032926;28;20207;-63
2023/06/05 10:23:53;;;;;;;4.28;3.88;;;;;;;25.52;40.06;96495.69;5033785;28;20211;-63
2023/06/05 10:26:31;;;;;;;4.40;4.10;;;;;;;25.85;42.48;96499.59;5034098;28;20219;-60
2023/06/05 10:29:13;;;;;;;4.50;4.10;;;;;;;26.00;42.95;96503.41;5022957;28;20204;-59
2023/06/05 10:31:46;;;;;;;4.35;4.03;;;;;;;26.49;42.81;96504.56;5033815;28;20215;-57
2023/06/05 10:34:24;;;;;;;4.85;4.45;;;;;;;26.58;39.59;96508.50;5033473;28;20216;-57
2023/06/05 10:37:21;;;;;;;5.53;4.80;;;;;;;25.99;40.41;96496.34;5034485;28;20204;-57
2023/06/05 10:39:52;;;;;;;4.53;4.22;;;;;;;26.59;41.79;96499.28;5033379;28;20696;-56
2023/06/05 10:42:25;;;;;;;4.78;4.38;;;;;;;26.90;41.67;96503.31;5034759;28;20200;-56
2023/06/05 10:44:52;;;;;;;9.50;4.82;;;;;;;27.04;40.68;96503.78;5034388;28;20200;-57
2023/06/05 10:47:52;;;;;;;5.28;4.80;;;;;;;27.21;38.40;96494.53;5033583;28;20208;-57
2023/06/05 10:50:26;;;;;;;5.47;4.70;;;;;;;27.29;39.87;96492.44;5032905;28;20628;-56
2023/06/05 10:52:54;;;;;;;5.35;4.85;;;;;;;26.84;40.35;96482.63;5032927;28;20215;-58
2023/06/05 10:55:23;;;;;;;5.55;4.43;;;;;;;26.98;41.29;96489.34;5032156;28;20219;-59
2023/06/05 10:58:07;;;;;;;8.55;4.65;;;;;;;27.13;40.88;96494.97;5033271;28;20204;-58
2023/06/05 11:00:34;;;;;;;4.95;4.55;;;;;;;26.69;40.88;96491.31;5032701;28;20767;-57
2023/06/05 11:03:02;;;;;;;6.15;4.30;;;;;;;26.00;42.42;96486.31;5032028;28;20212;-59
2023/06/05 11:05:29;;;;;;;6.32;5.50;;;;;;;25.78;42.06;96478.06;5033019;28;20231;-60
2023/06/05 11:08:14;;;;;;;5.03;4.25;;;;;;;25.70;43.68;96476.56;5032751;28;20553;-65
2023/06/05 11:11:05;;;;;;;4.82;4.20;;;;;;;25.94;44.58;96487.28;5032969;28;20212;-64
2023/06/05 11:13:55;;;;;;;4.82;4.38;;;;;;;26.12;41.54;96476.22;5031652;28;20219;-61
2023/06/05 11:16:31;;;;;;;4.43;3.95;;;;;;;26.57;42.12;96471.59;5032424;28;20286;-61
2023/06/05 11:19:35;;;;;;;6.10;5.07;;;;;;;26.72;43.94;96474.53;5032547;28;20203;-63
2023/06/05 11:22:08;;;;;;;4.85;4.10;;;;;;;26.77;40.05;96473.78;5031905;28;20207;-63
2023/06/05 11:24:36;;;;;;;4.80;4.18;;;;;;;26.70;40.49;96471.25;5032210;28;20207;-62
2023/06/05 11:27:03;;;;;;;4.82;4.40;;;;;;;26.48;40.64;96478.50;5031588;28;20701;-63
2023/06/05 11:29:30;;;;;;;4.60;4.20;;;;;;;26.25;40.86;96475.13;5031847;28;20310;-62
2023/06/05 11:31:56;;;;;;;4.82;4.43;;;;;;;26.15;35.05;96476.56;5031452;28;20586;-62
2023/06/05 11:34:23;;;;;;;5.28;4.72;;;;;;;26.30;35.76;96462.47;5030024;28;20204;-61
2023/06/05 11:36:50;;;;;;;5.45;4.70;;;;;;;26.64;36.97;96464.09;5031641;28;20200;-63
2023/06/05 11:39:19;;;;;;;4.78;4.38;;;;;;;26.64;38.51;96453.25;5031512;28;20204;-64